Aérodrome :
LOGIN :

S'inscrire | Disclaimer

   EN    FR    IT 

 










Légende :    VFR   VFR Marginal   IFR   IFR Intensif   IFR Très Intensif
Visi : 
Plafond : 
>= 8 km
>= 3000ft
5 à 8 km
1000 à 3000 ft
1500m à 5 km
500 à 1000 ft
800 à 1500m
200 à 500 ft
< 800m
< 200 ft
Symboles :   Orages  Brouillard  Fortes neiges  Fortes précipitations  Vent > 20 kt
SIGMETs :   Divers  Orages  Givrage  Turbulence  Onde Orograph.  Cendres Volcan.







- Altitude de l'aérodrome : 137 ft


LIPS - Istrana AFB Treviso

DERNIER METAR :
  • 131755Z 34002KT 9999 BKN020 06/04 Q1015 RMK BKN VIS MIN 9999 WIND THR26 34002KT WIND THR08 35003KT WHT

METARs EXPIRÉS :
  • 131655Z 01003KT 9999 FEW015 BKN020 07/04 Q1015 RMK BKN VIS MIN 9999 WIND THR26 01004KT WIND THR08 01004KT WHT
  • 131555Z 07003KT 9999 FEW015 BKN018 07/04 Q1016 RMK OVC VIS MIN 9999 WIND THR26 06002KT WIND THR08 07003KT WHT

TAF TAF LIPS
Valide du 13 à 18h jusqu'au 14 à 03h UTC


131700Z 1318/1403 04005KT 9999 FEW010 BKN020
BECMG 1321/1323 VRB03KT 6000 FEW008 BKN015
TEMPO 1400/1403 3000 BR SCT006 BKN010
Pas de NOTAMs connus pour ce terrain.



MET'MAP, la Météo Aéronautique d'un coup d'oeil ! - Copyright ORBIFLY Décembre 2007 - Disclaimer

ORBIFLY MET'MAP TEAM :

Programmation & Développement : Alexandra Zaïnal
Conception & Développement : Baudouin d'Aumeries
Co-Programmation & Développement : Marc-Olivier Méhu
Soutien technique & logistique : Manuel Goepfert

Contact : metmap@orbifly.com




SOURCES & CREDITS :

   NOAA